| time (UTC) | temp F | wind direction | speed knots | gust knots | rain 1hr in | rain 24hr in | rain mn in | humidity % | barometer mb |
| 20260507160112 | 61 | 249 | 1.7 | 6.1 | 0.00 | 0.50 | 0.39 | 59 | 1007.8 |
| 20260507155623 | 61 | 176 | 1.7 | 6.1 | 0.00 | 0.50 | 0.39 | 58 | 1007.8 |
| 20260507155059 | 61 | 265 | 2.6 | 7.8 | 0.00 | 0.50 | 0.39 | 59 | 1007.9 |
| 20260507154601 | 60 | 309 | 3.5 | 7.8 | 0.00 | 0.50 | 0.39 | 59 | 1008.0 |
| 20260507154100 | 60 | 314 | 0.0 | 5.2 | 0.00 | 0.50 | 0.39 | 61 | 1008.1 |
| 20260507153600 | 59 | 213 | 2.6 | 8.7 | 0.00 | 0.50 | 0.39 | 61 | 1008.1 |
| 20260507153114 | 60 | 268 | 3.5 | 8.7 | 0.00 | 0.50 | 0.39 | 62 | 1008.1 |
| 20260507152602 | 60 | 291 | 1.7 | 8.7 | 0.00 | 0.50 | 0.39 | 60 | 1008.1 |
| 20260507152059 | 59 | 154 | 0.9 | 8.7 | 0.00 | 0.50 | 0.39 | 64 | 1008.1 |
| 20260507151601 | 60 | 223 | 2.6 | 10.4 | 0.00 | 0.50 | 0.39 | 59 | 1008.2 |
| 20260507151101 | 59 | 267 | 2.6 | 10.4 | 0.00 | 0.50 | 0.39 | 59 | 1008.3 |
| 20260507150602 | 59 | 332 | 3.5 | 10.4 | 0.00 | 0.50 | 0.39 | 59 | 1008.3 |
| 20260507150109 | 59 | 325 | 1.7 | 7.0 | 0.00 | 0.50 | 0.39 | 61 | 1008.3 |
| 20260507145601 | 59 | 315 | 2.6 | 7.0 | 0.00 | 0.50 | 0.39 | 61 | 1008.4 |
| 20260507145104 | 58 | 237 | 1.7 | 7.0 | 0.00 | 0.50 | 0.39 | 60 | 1008.4 |
| 20260507144558 | 58 | 213 | 3.5 | 7.8 | 0.00 | 0.50 | 0.39 | 59 | 1008.3 |
| 20260507144100 | 58 | 350 | 2.6 | 7.8 | 0.00 | 0.50 | 0.39 | 61 | 1008.3 |
| 20260507143601 | 58 | 0 | 2.6 | 7.8 | 0.00 | 0.50 | 0.39 | 60 | 1008.3 |
| 20260507143101 | 58 | 0 | 2.6 | 7.0 | 0.00 | 0.50 | 0.39 | 65 | 1008.2 |
| 20260507142601 | 57 | 262 | 2.6 | 5.2 | 0.00 | 0.50 | 0.39 | 65 | 1008.3 |
| 20260507142102 | 57 | 221 | 0.9 | 7.0 | 0.00 | 0.50 | 0.39 | 70 | 1008.4 |
| 20260507141603 | 57 | 56 | 1.7 | 7.0 | 0.00 | 0.50 | 0.39 | 70 | 1008.5 |
| 20260507141101 | 56 | 312 | 3.5 | 7.0 | 0.00 | 0.50 | 0.39 | 69 | 1008.6 |
| 20260507140601 | 56 | 219 | 1.7 | 6.1 | 0.00 | 0.50 | 0.39 | 72 | 1008.6 |
| 20260507140059 | 56 | 255 | 1.7 | 7.8 | 0.00 | 0.50 | 0.39 | 74 | 1008.6 |
| 20260507135604 | 55 | 202 | 1.7 | 7.8 | 0.00 | 0.50 | 0.39 | 77 | 1008.7 |
| 20260507135104 | 54 | 305 | 2.6 | 7.8 | 0.00 | 0.50 | 0.39 | 79 | 1008.6 |
| 20260507134611 | 54 | 242 | 1.7 | 7.0 | 0.00 | 0.50 | 0.39 | 82 | 1008.5 |
| 20260507134101 | 54 | 306 | 1.7 | 7.0 | 0.00 | 0.50 | 0.39 | 86 | 1008.4 |
| 20260507133601 | 53 | 222 | 2.6 | 7.8 | 0.00 | 0.50 | 0.39 | 88 | 1008.6 |
| 20260507133101 | 53 | 251 | 1.7 | 7.8 | 0.00 | 0.50 | 0.39 | 89 | 1008.6 |
| 20260507132559 | 52 | 277 | 0.9 | 6.1 | 0.00 | 0.50 | 0.39 | 91 | 1008.8 |
| 20260507132059 | 51 | 229 | 1.7 | 6.1 | 0.00 | 0.50 | 0.39 | 91 | 1008.7 |
| 20260507131601 | 52 | 266 | 1.7 | 7.8 | 0.00 | 0.50 | 0.39 | 92 | 1008.6 |
| 20260507131102 | 51 | 304 | 1.7 | 7.8 | 0.00 | 0.50 | 0.39 | 92 | 1008.5 |
| 20260507130559 | 51 | 236 | 0.9 | 3.5 | 0.00 | 0.50 | 0.39 | 93 | 1008.7 |
| 20260507130110 | 51 | 0 | 0.9 | 4.3 | 0.00 | 0.50 | 0.39 | 94 | 1008.7 |
| 20260507125601 | 51 | 0 | 0.9 | 4.3 | 0.00 | 0.50 | 0.39 | 93 | 1008.6 |
| 20260507125103 | 50 | 284 | 1.7 | 4.3 | 0.00 | 0.50 | 0.39 | 93 | 1008.6 |
| 20260507124620 | 50 | 0 | 0.0 | 2.6 | 0.01 | 0.50 | 0.39 | 94 | 1008.7 |
| 20260507124101 | 50 | 0 | 0.0 | 2.6 | 0.01 | 0.50 | 0.39 | 93 | 1008.7 |
| 20260507123601 | 50 | 0 | 0.9 | 2.6 | 0.01 | 0.50 | 0.39 | 94 | 1008.7 |
| 20260507123110 | 49 | 0 | 0.0 | 1.7 | 0.01 | 0.50 | 0.39 | 94 | 1008.6 |
| 20260507122559 | 49 | 0 | 0.0 | 0.0 | 0.02 | 0.50 | 0.39 | 93 | 1009.0 |
| 20260507122057 | 49 | 0 | 0.0 | 0.9 | 0.02 | 0.50 | 0.39 | 94 | 1009.0 |
| 20260507121604 | 49 | 0 | 0.0 | 0.9 | 0.03 | 0.50 | 0.39 | 94 | 1009.0 |
| 20260507121059 | 49 | 0 | 0.0 | 2.6 | 0.03 | 0.50 | 0.39 | 94 | 1009.0 |
| 20260507120559 | 49 | 0 | 0.0 | 2.6 | 0.04 | 0.50 | 0.39 | 94 | 1008.7 |
| 20260507115559 | 48 | 0 | 0.0 | 0.0 | 0.04 | 0.50 | 0.39 | 94 | 1008.6 |
| 20260507115101 | 48 | 0 | 0.0 | 0.0 | 0.05 | 0.50 | 0.39 | 93 | 1008.6 |
| 20260507114604 | 48 | 0 | 0.0 | 0.9 | 0.04 | 0.49 | 0.38 | 93 | 1008.6 |
| 20260507114101 | 48 | 0 | 0.0 | 1.7 | 0.04 | 0.49 | 0.38 | 93 | 1008.7 |
| 20260507113601 | 47 | 0 | 0.0 | 1.7 | 0.04 | 0.49 | 0.38 | 93 | 1008.5 |
| 20260507113100 | 47 | 0 | 0.0 | 1.7 | 0.04 | 0.49 | 0.38 | 93 | 1008.6 |
| 20260507112601 | 47 | 223 | 0.0 | 2.6 | 0.03 | 0.48 | 0.37 | 93 | 1008.9 |
| 20260507112104 | 47 | 0 | 0.9 | 6.1 | 0.03 | 0.48 | 0.37 | 93 | 1008.9 |
| 20260507111558 | 47 | 232 | 0.9 | 6.1 | 0.03 | 0.47 | 0.36 | 93 | 1008.5 |
| 20260507111059 | 47 | 325 | 1.7 | 5.2 | 0.03 | 0.47 | 0.36 | 93 | 1008.4 |
| 20260507110559 | 48 | 306 | 0.0 | 1.7 | 0.02 | 0.46 | 0.35 | 93 | 1008.8 |
| 20260507105600 | 48 | 279 | 0.0 | 1.7 | 0.03 | 0.46 | 0.35 | 93 | 1008.7 |
| 20260507105059 | 48 | 298 | 0.0 | 4.3 | 0.02 | 0.45 | 0.34 | 93 | 1008.3 |
| 20260507104558 | 48 | 261 | 0.9 | 4.3 | 0.03 | 0.45 | 0.34 | 93 | 1008.1 |
| 20260507104059 | 48 | 14 | 0.0 | 1.7 | 0.03 | 0.45 | 0.34 | 93 | 1007.9 |
| 20260507103600 | 48 | 0 | 0.0 | 2.6 | 0.03 | 0.45 | 0.34 | 93 | 1008.1 |
| 20260507103114 | 48 | 0 | 0.0 | 3.5 | 0.03 | 0.45 | 0.34 | 93 | 1008.1 |
| 20260507102559 | 47 | 292 | 0.0 | 3.5 | 0.03 | 0.45 | 0.34 | 93 | 1008.5 |
| 20260507102100 | 48 | 0 | 0.0 | 2.6 | 0.03 | 0.45 | 0.34 | 93 | 1008.5 |
| 20260507101603 | 48 | 265 | 0.0 | 3.5 | 0.02 | 0.44 | 0.33 | 93 | 1008.4 |
| 20260507101100 | 48 | 0 | 0.9 | 3.5 | 0.03 | 0.44 | 0.33 | 93 | 1008.5 |
| 20260507100559 | 48 | 257 | 0.0 | 2.6 | 0.03 | 0.44 | 0.33 | 93 | 1008.7 |
| 20260507100113 | 48 | 295 | 0.9 | 2.6 | 0.02 | 0.43 | 0.32 | 93 | 1008.4 |
| 20260507095603 | 48 | 307 | 0.0 | 3.5 | 0.02 | 0.43 | 0.32 | 93 | 1008.2 |
| 20260507095101 | 48 | 309 | 0.0 | 3.5 | 0.02 | 0.43 | 0.32 | 93 | 1008.2 |
| 20260507094559 | 48 | 291 | 0.9 | 3.5 | 0.01 | 0.42 | 0.31 | 93 | 1008.1 |
| 20260507094059 | 48 | 279 | 0.9 | 7.0 | 0.02 | 0.42 | 0.31 | 93 | 1008.2 |
| 20260507093601 | 48 | 287 | 1.7 | 7.0 | 0.02 | 0.42 | 0.31 | 93 | 1008.1 |
| 20260507093100 | 48 | 257 | 0.9 | 3.5 | 0.02 | 0.42 | 0.31 | 93 | 1008.2 |
| 20260507092559 | 48 | 272 | 1.7 | 7.0 | 0.03 | 0.42 | 0.31 | 93 | 1008.0 |
| 20260507092059 | 48 | 267 | 1.7 | 7.0 | 0.04 | 0.42 | 0.31 | 93 | 1007.8 |
| 20260507091600 | 49 | 298 | 0.9 | 3.5 | 0.04 | 0.42 | 0.31 | 93 | 1007.8 |
| 20260507091101 | 49 | 217 | 0.9 | 5.2 | 0.04 | 0.41 | 0.30 | 94 | 1008.5 |
| 20260507090600 | 49 | 248 | 0.9 | 5.2 | 0.07 | 0.41 | 0.30 | 93 | 1008.3 |
| 20260507090100 | 49 | 244 | 0.9 | 3.5 | 0.10 | 0.41 | 0.30 | 93 | 1008.0 |
| 20260507085600 | 49 | 226 | 1.7 | 8.7 | 0.12 | 0.41 | 0.30 | 93 | 1007.8 |
| 20260507085100 | 50 | 254 | 1.7 | 8.7 | 0.15 | 0.41 | 0.30 | 93 | 1007.4 |
| 20260507084601 | 50 | 219 | 2.6 | 8.7 | 0.17 | 0.41 | 0.30 | 94 | 1007.7 |
| 20260507084059 | 51 | 254 | 0.0 | 0.0 | 0.19 | 0.40 | 0.29 | 94 | 1007.6 |
| 20260507083559 | 51 | 0 | 0.0 | 0.0 | 0.24 | 0.40 | 0.29 | 94 | 1007.4 |
| 20260507083120 | 52 | 0 | 0.0 | 1.7 | 0.27 | 0.40 | 0.29 | 94 | 1007.5 |
| 20260507082600 | 52 | 0 | 0.0 | 3.5 | 0.28 | 0.39 | 0.28 | 94 | 1007.6 |
| 20260507082059 | 52 | 360 | 0.0 | 3.5 | 0.27 | 0.38 | 0.27 | 94 | 1007.5 |
| 20260507081605 | 52 | 0 | 0.0 | 5.2 | 0.27 | 0.38 | 0.27 | 94 | 1007.5 |
| 20260507081059 | 52 | 297 | 0.0 | 6.1 | 0.26 | 0.37 | 0.26 | 94 | 1007.7 |
| 20260507080600 | 52 | 274 | 0.9 | 6.1 | 0.23 | 0.34 | 0.23 | 94 | 1007.6 |
| 20260507080059 | 52 | 345 | 1.7 | 7.0 | 0.20 | 0.31 | 0.20 | 94 | 1007.7 |
| 20260507075602 | 52 | 0 | 0.9 | 7.0 | 0.18 | 0.29 | 0.18 | 93 | 1008.1 |
| 20260507075100 | 53 | 273 | 2.6 | 6.1 | 0.15 | 0.26 | 0.15 | 93 | 1007.6 |
| 20260507074616 | 53 | 249 | 1.7 | 6.1 | 0.13 | 0.24 | 0.13 | 94 | 1007.7 |
| 20260507074059 | 54 | 240 | 1.7 | 6.1 | 0.10 | 0.21 | 0.10 | 93 | 1007.1 |
| 20260507073600 | 54 | 16 | 0.9 | 6.1 | 0.05 | 0.16 | 0.05 | 94 | 1006.8 |
| 20260507073102 | 55 | 277 | 1.7 | 6.1 | 0.01 | 0.12 | 0.01 | 94 | 1006.6 |
| 20260507072559 | 55 | 224 | 0.9 | 3.5 | 0.00 | 0.11 | 0.00 | 94 | 1006.3 |
| 20260507072058 | 55 | 294 | 0.0 | 1.7 | 0.00 | 0.11 | 0.00 | 94 | 1006.1 |
| 20260507071600 | 55 | 210 | 0.0 | 0.9 | 0.00 | 0.11 | 0.00 | 94 | 1006.4 |
| 20260507071058 | 55 | 0 | 0.0 | 0.0 | 0.00 | 0.11 | 0.00 | 94 | 1006.3 |
| 20260507070601 | 55 | 0 | 0.0 | 0.0 | 0.00 | 0.11 | 0.00 | 94 | 1006.4 |
| 20260507070104 | 55 | 0 | 0.0 | 0.0 | 0.00 | 0.11 | 0.00 | 94 | 1006.4 |
| 20260507065559 | 55 | 0 | 0.0 | 0.0 | 0.00 | 0.11 | 0.00 | 94 | 1006.4 |
| 20260507065058 | 55 | 0 | 0.0 | 0.0 | 0.00 | 0.11 | 0.00 | 94 | 1006.4 |
| 20260507064602 | 55 | 0 | 0.0 | 0.0 | 0.00 | 0.11 | 0.00 | 94 | 1006.5 |
| 20260507064058 | 55 | 0 | 0.0 | 0.0 | 0.00 | 0.11 | 0.00 | 94 | 1006.4 |
| 20260507063558 | 55 | 0 | 0.0 | 0.0 | 0.00 | 0.11 | 0.00 | 94 | 1006.5 |
| 20260507063100 | 55 | 0 | 0.0 | 0.0 | 0.00 | 0.11 | 0.00 | 94 | 1006.6 |
| 20260507062600 | 55 | 0 | 0.0 | 0.0 | 0.00 | 0.11 | 0.00 | 94 | 1006.6 |
| 20260507062132 | 55 | 0 | 0.0 | 0.0 | 0.00 | 0.11 | 0.00 | 94 | 1006.5 |
| 20260507061601 | 55 | 0 | 0.0 | 0.0 | 0.00 | 0.11 | 0.00 | 94 | 1006.4 |
| 20260507061058 | 55 | 0 | 0.0 | 0.0 | 0.00 | 0.11 | 0.00 | 94 | 1006.4 |
| 20260507060557 | 55 | 0 | 0.0 | 0.0 | 0.00 | 0.11 | 0.00 | 94 | 1006.6 |
| 20260507060105 | 55 | 0 | 0.0 | 0.9 | 0.00 | 0.11 | 0.00 | 94 | 1006.8 |
| 20260507055559 | 55 | 0 | 0.0 | 0.9 | 0.00 | 0.11 | 0.00 | 94 | 1006.8 |
| 20260507055059 | 55 | 0 | 0.0 | 0.0 | 0.00 | 0.11 | 0.00 | 94 | 1006.8 |
| 20260507054559 | 55 | 0 | 0.0 | 1.7 | 0.00 | 0.11 | 0.00 | 94 | 1006.9 |
| 20260507054058 | 55 | 0 | 0.0 | 1.7 | 0.00 | 0.11 | 0.00 | 94 | 1007.0 |
| 20260507053559 | 55 | 0 | 0.0 | 1.7 | 0.00 | 0.11 | 0.00 | 94 | 1007.0 |
| 20260507053100 | 55 | 0 | 0.0 | 1.7 | 0.00 | 0.11 | 0.00 | 94 | 1007.0 |
| 20260507052600 | 55 | 0 | 0.0 | 1.7 | 0.00 | 0.11 | 0.00 | 94 | 1007.2 |
| 20260507052058 | 55 | 0 | 0.0 | 1.7 | 0.00 | 0.11 | 0.00 | 94 | 1007.2 |
| 20260507051601 | 56 | 0 | 0.0 | 2.6 | 0.00 | 0.11 | 0.00 | 94 | 1007.1 |
| 20260507051103 | 56 | 0 | 0.0 | 2.6 | 0.00 | 0.11 | 0.00 | 94 | 1007.3 |
| 20260507050603 | 55 | 0 | 0.0 | 2.6 | 0.00 | 0.11 | 0.00 | 94 | 1007.4 |
| 20260507045601 | 56 | 0 | 0.0 | 1.7 | 0.00 | 0.11 | 0.00 | 94 | 1007.5 |
| 20260507045104 | 55 | 0 | 0.0 | 1.7 | 0.00 | 0.11 | 0.00 | 94 | 1007.4 |
| 20260507044602 | 56 | 0 | 0.0 | 1.7 | 0.00 | 0.11 | 0.00 | 94 | 1007.2 |
| 20260507044104 | 56 | 0 | 0.0 | 3.5 | 0.00 | 0.11 | 0.00 | 94 | 1007.3 |
| 20260507043559 | 56 | 200 | 0.0 | 4.3 | 0.00 | 0.11 | 0.00 | 94 | 1007.4 |
| 20260507043103 | 56 | 171 | 0.0 | 4.3 | 0.00 | 0.11 | 0.00 | 94 | 1007.2 |
| 20260507042559 | 56 | 0 | 0.0 | 1.7 | 0.00 | 0.11 | 0.00 | 94 | 1007.1 |
| 20260507042059 | 56 | 0 | 0.0 | 1.7 | 0.00 | 0.11 | 0.00 | 94 | 1007.1 |
| 20260507041601 | 56 | 207 | 0.0 | 1.7 | 0.00 | 0.11 | 0.00 | 94 | 1007.0 |
| 20260507041058 | 55 | 0 | 0.0 | 1.7 | 0.00 | 0.11 | 0.00 | 94 | 1007.1 |
| 20260507040602 | 55 | 0 | 0.0 | 1.7 | 0.00 | 0.11 | 0.00 | 94 | 1007.0 |
| 20260507035558 | 55 | 0 | 0.0 | 1.7 | 0.00 | 0.11 | 0.11 | 94 | 1007.1 |
| 20260507035058 | 55 | 0 | 0.0 | 1.7 | 0.00 | 0.11 | 0.11 | 94 | 1007.1 |
| 20260507034600 | 55 | 0 | 0.0 | 3.5 | 0.00 | 0.11 | 0.11 | 94 | 1007.1 |
| 20260507034100 | 55 | 0 | 0.9 | 3.5 | 0.00 | 0.11 | 0.11 | 94 | 1007.3 |
| 20260507033559 | 55 | 158 | 0.0 | 3.5 | 0.00 | 0.11 | 0.11 | 94 | 1007.4 |
| 20260507033059 | 55 | 185 | 0.9 | 3.5 | 0.00 | 0.11 | 0.11 | 94 | 1007.5 |
| 20260507032601 | 55 | 0 | 0.0 | 1.7 | 0.00 | 0.11 | 0.11 | 94 | 1007.5 |
| 20260507032100 | 55 | 177 | 0.0 | 1.7 | 0.00 | 0.11 | 0.11 | 94 | 1007.4 |
| 20260507031600 | 55 | 194 | 0.0 | 3.5 | 0.00 | 0.11 | 0.11 | 94 | 1007.3 |
| 20260507031103 | 55 | 0 | 0.0 | 4.3 | 0.00 | 0.11 | 0.11 | 93 | 1007.4 |
| 20260507030559 | 55 | 163 | 0.9 | 4.3 | 0.00 | 0.11 | 0.11 | 93 | 1007.4 |
| 20260507030101 | 55 | 0 | 0.0 | 3.5 | 0.00 | 0.11 | 0.11 | 93 | 1007.2 |
| 20260507025604 | 55 | 0 | 0.0 | 3.5 | 0.00 | 0.11 | 0.11 | 93 | 1007.2 |
| 20260507025058 | 55 | 0 | 0.9 | 3.5 | 0.00 | 0.11 | 0.11 | 93 | 1007.3 |
| 20260507024620 | 55 | 207 | 0.9 | 3.5 | 0.00 | 0.11 | 0.11 | 93 | 1007.3 |
| 20260507024100 | 55 | 148 | 0.9 | 3.5 | 0.00 | 0.11 | 0.11 | 93 | 1007.3 |
| 20260507023604 | 55 | 223 | 0.9 | 2.6 | 0.00 | 0.11 | 0.11 | 93 | 1007.4 |
| 20260507023059 | 55 | 313 | 0.0 | 2.6 | 0.00 | 0.11 | 0.11 | 93 | 1007.2 |
| 20260507022558 | 55 | 0 | 0.0 | 4.3 | 0.00 | 0.11 | 0.11 | 93 | 1007.2 |
| 20260507022059 | 55 | 0 | 0.0 | 4.3 | 0.00 | 0.11 | 0.11 | 93 | 1007.4 |
| 20260507021600 | 55 | 200 | 0.9 | 4.3 | 0.00 | 0.11 | 0.11 | 93 | 1007.5 |
| 20260507021059 | 55 | 0 | 0.9 | 3.5 | 0.00 | 0.11 | 0.11 | 93 | 1007.4 |
| 20260507020559 | 55 | 131 | 0.0 | 4.3 | 0.00 | 0.11 | 0.11 | 93 | 1007.5 |
| 20260507020110 | 55 | 200 | 0.9 | 4.3 | 0.00 | 0.11 | 0.11 | 93 | 1007.6 |
| 20260507015558 | 55 | 0 | 0.0 | 3.5 | 0.00 | 0.11 | 0.11 | 93 | 1007.6 |
| 20260507015100 | 55 | 0 | 0.0 | 3.5 | 0.00 | 0.11 | 0.11 | 93 | 1007.7 |
| 20260507014609 | 55 | 0 | 0.0 | 4.3 | 0.00 | 0.11 | 0.11 | 93 | 1007.9 |
| 20260507014058 | 55 | 0 | 0.9 | 4.3 | 0.00 | 0.11 | 0.11 | 93 | 1007.8 |
| 20260507013558 | 55 | 200 | 0.9 | 4.3 | 0.00 | 0.11 | 0.11 | 93 | 1007.7 |
| 20260507013059 | 55 | 188 | 0.0 | 1.7 | 0.00 | 0.11 | 0.11 | 93 | 1007.8 |
| 20260507012601 | 55 | 0 | 0.0 | 3.5 | 0.00 | 0.11 | 0.11 | 93 | 1007.8 |
| 20260507012058 | 55 | 0 | 0.0 | 3.5 | 0.00 | 0.11 | 0.11 | 93 | 1007.9 |
| 20260507011603 | 55 | 0 | 0.9 | 7.0 | 0.00 | 0.11 | 0.11 | 93 | 1007.9 |
| 20260507011059 | 55 | 50 | 0.0 | 7.0 | 0.00 | 0.11 | 0.11 | 93 | 1008.0 |
| 20260507010559 | 55 | 182 | 0.0 | 3.5 | 0.00 | 0.11 | 0.11 | 93 | 1008.1 |
| 20260507010101 | 55 | 0 | 0.9 | 5.2 | 0.00 | 0.11 | 0.11 | 93 | 1008.1 |
| 20260507005558 | 55 | 164 | 0.9 | 5.2 | 0.00 | 0.11 | 0.11 | 93 | 1008.0 |
| 20260507005058 | 55 | 169 | 0.9 | 6.1 | 0.00 | 0.11 | 0.11 | 93 | 1007.9 |
| 20260507004601 | 55 | 205 | 0.9 | 6.1 | 0.00 | 0.11 | 0.11 | 93 | 1007.9 |
| 20260507004101 | 55 | 0 | 1.7 | 6.1 | 0.00 | 0.11 | 0.11 | 93 | 1007.9 |
| 20260507003558 | 55 | 178 | 0.9 | 5.2 | 0.00 | 0.11 | 0.11 | 93 | 1007.9 |
| 20260507003101 | 55 | 182 | 0.0 | 4.3 | 0.00 | 0.11 | 0.11 | 93 | 1008.0 |
| 20260507002559 | 55 | 157 | 0.9 | 4.3 | 0.00 | 0.11 | 0.11 | 92 | 1008.0 |
| 20260507002102 | 55 | 0 | 0.9 | 4.3 | 0.00 | 0.11 | 0.11 | 92 | 1008.0 |
| 20260507001611 | 55 | 0 | 1.7 | 5.2 | 0.00 | 0.11 | 0.11 | 92 | 1008.1 |
| 20260507001057 | 55 | 240 | 0.9 | 5.2 | 0.00 | 0.11 | 0.11 | 92 | 1008.0 |
| 20260507000601 | 55 | 210 | 0.9 | 8.7 | 0.02 | 0.11 | 0.11 | 92 | 1008.0 |
| 20260507000100 | 55 | 159 | 2.6 | 8.7 | 0.03 | 0.11 | 0.11 | 92 | 1008.0 |
| 20260506235601 | 55 | 266 | 0.9 | 7.0 | 0.04 | 0.11 | 0.11 | 92 | 1008.1 |
| 20260506235058 | 55 | 115 | 1.7 | 7.0 | 0.04 | 0.11 | 0.11 | 92 | 1008.0 |
| 20260506234612 | 55 | 0 | 2.6 | 7.0 | 0.04 | 0.11 | 0.11 | 92 | 1008.0 |
| 20260506234058 | 55 | 0 | 1.7 | 4.3 | 0.04 | 0.11 | 0.11 | 92 | 1008.0 |
| 20260506233603 | 56 | 182 | 0.9 | 6.1 | 0.04 | 0.11 | 0.11 | 92 | 1008.0 |
| 20260506233101 | 55 | 180 | 1.7 | 10.4 | 0.05 | 0.11 | 0.11 | 92 | 1008.0 |
| 20260506232559 | 55 | 180 | 2.6 | 10.4 | 0.05 | 0.11 | 0.11 | 92 | 1008.0 |
| 20260506232059 | 55 | 172 | 1.7 | 5.2 | 0.06 | 0.11 | 0.11 | 92 | 1008.0 |
| 20260506231600 | 56 | 223 | 0.9 | 6.1 | 0.06 | 0.11 | 0.11 | 92 | 1008.0 |
| 20260506231059 | 55 | 313 | 0.9 | 7.0 | 0.06 | 0.11 | 0.11 | 91 | 1008.0 |
| 20260506230558 | 55 | 111 | 1.7 | 7.0 | 0.04 | 0.09 | 0.09 | 91 | 1007.9 |
| 20260506225602 | 56 | 200 | 0.9 | 5.2 | 0.02 | 0.07 | 0.07 | 91 | 1007.8 |
| 20260506225102 | 55 | 0 | 0.9 | 4.3 | 0.02 | 0.07 | 0.07 | 91 | 1007.7 |
| 20260506224600 | 56 | 159 | 0.9 | 7.8 | 0.02 | 0.07 | 0.07 | 91 | 1007.6 |
| 20260506224058 | 56 | 200 | 0.9 | 7.8 | 0.02 | 0.07 | 0.07 | 91 | 1007.7 |
| 20260506223558 | 56 | 0 | 0.9 | 7.0 | 0.02 | 0.07 | 0.07 | 91 | 1007.8 |
| 20260506223100 | 56 | 192 | 1.7 | 7.0 | 0.01 | 0.06 | 0.06 | 91 | 1007.9 |
| 20260506222601 | 56 | 174 | 1.7 | 7.8 | 0.01 | 0.06 | 0.06 | 90 | 1007.9 |
| 20260506222059 | 56 | 212 | 1.7 | 11.3 | 0.00 | 0.05 | 0.05 | 90 | 1007.9 |
| 20260506221558 | 56 | 0 | 2.6 | 11.3 | 0.00 | 0.05 | 0.05 | 90 | 1008.2 |
| 20260506221058 | 56 | 211 | 0.9 | 10.4 | 0.01 | 0.05 | 0.05 | 90 | 1008.2 |
| 20260506220558 | 56 | 215 | 1.7 | 10.4 | 0.01 | 0.05 | 0.05 | 90 | 1008.2 |
| 20260506220058 | 56 | 199 | 2.6 | 8.7 | 0.01 | 0.05 | 0.05 | 90 | 1008.3 |
| 20260506215557 | 56 | 194 | 1.7 | 6.1 | 0.02 | 0.05 | 0.05 | 90 | 1008.4 |
| 20260506215059 | 56 | 192 | 1.7 | 6.1 | 0.02 | 0.05 | 0.05 | 90 | 1008.3 |
| 20260506214558 | 56 | 181 | 1.7 | 6.1 | 0.02 | 0.05 | 0.05 | 90 | 1008.4 |
| 20260506214059 | 56 | 200 | 1.7 | 6.1 | 0.02 | 0.05 | 0.05 | 90 | 1008.3 |
| 20260506213600 | 56 | 153 | 1.7 | 6.1 | 0.02 | 0.05 | 0.05 | 90 | 1008.4 |
| 20260506213139 | 57 | 0 | 0.9 | 7.0 | 0.02 | 0.05 | 0.05 | 90 | 1008.5 |
| 20260506212558 | 56 | 207 | 1.7 | 7.8 | 0.02 | 0.05 | 0.05 | 89 | 1008.6 |
| 20260506212058 | 57 | 180 | 1.7 | 8.7 | 0.02 | 0.05 | 0.05 | 89 | 1008.4 |
| 20260506211625 | 57 | 193 | 2.6 | 8.7 | 0.02 | 0.05 | 0.05 | 88 | 1008.6 |
| 20260506211057 | 57 | 175 | 1.7 | 10.4 | 0.01 | 0.04 | 0.04 | 88 | 1008.6 |
| 20260506210601 | 57 | 198 | 1.7 | 11.3 | 0.01 | 0.04 | 0.04 | 88 | 1008.6 |
| 20260506210126 | 57 | 153 | 2.6 | 11.3 | 0.01 | 0.04 | 0.04 | 87 | 1008.8 |
| 20260506205559 | 57 | 187 | 1.7 | 13.0 | 0.01 | 0.03 | 0.03 | 87 | 1008.8 |
| 20260506205059 | 57 | 219 | 2.6 | 13.0 | 0.02 | 0.03 | 0.03 | 88 | 1008.7 |
| 20260506204601 | 57 | 200 | 2.6 | 11.3 | 0.02 | 0.03 | 0.03 | 88 | 1008.8 |
| 20260506204057 | 57 | 169 | 1.7 | 7.0 | 0.03 | 0.03 | 0.03 | 88 | 1008.9 |
| 20260506203558 | 57 | 142 | 0.9 | 8.7 | 0.03 | 0.03 | 0.03 | 88 | 1008.9 |
| 20260506203105 | 57 | 302 | 1.7 | 8.7 | 0.03 | 0.03 | 0.03 | 88 | 1008.9 |
| 20260506202604 | 57 | 161 | 0.9 | 8.7 | 0.03 | 0.03 | 0.03 | 88 | 1008.9 |
| 20260506202104 | 57 | 0 | 1.7 | 11.3 | 0.03 | 0.03 | 0.03 | 88 | 1009.0 |
| 20260506201610 | 57 | 94 | 2.6 | 11.3 | 0.03 | 0.03 | 0.03 | 87 | 1009.1 |
| 20260506201100 | 57 | 207 | 2.6 | 11.3 | 0.03 | 0.03 | 0.03 | 87 | 1009.1 |
| 20260506200600 | 57 | 222 | 0.9 | 7.0 | 0.03 | 0.03 | 0.03 | 87 | 1009.1 |
| 20260506200103 | 58 | 198 | 0.9 | 6.1 | 0.03 | 0.03 | 0.03 | 86 | 1009.1 |
| 20260506195602 | 58 | 130 | 0.9 | 8.7 | 0.02 | 0.02 | 0.02 | 85 | 1009.3 |
| 20260506195103 | 58 | 167 | 1.7 | 9.6 | 0.01 | 0.01 | 0.01 | 84 | 1009.3 |
| 20260506194623 | 59 | 219 | 2.6 | 9.6 | 0.01 | 0.01 | 0.01 | 83 | 1009.4 |
| 20260506194100 | 59 | 114 | 1.7 | 7.0 | 0.00 | 0.00 | 0.00 | 81 | 1009.5 |
| 20260506193601 | 60 | 219 | 1.7 | 7.8 | 0.00 | 0.00 | 0.00 | 80 | 1009.5 |
| 20260506193102 | 60 | 164 | 2.6 | 7.8 | 0.00 | 0.00 | 0.00 | 78 | 1009.5 |
| 20260506192559 | 61 | 160 | 0.9 | 9.6 | 0.00 | 0.00 | 0.00 | 77 | 1009.4 |
| 20260506192058 | 61 | 165 | 1.7 | 9.6 | 0.00 | 0.00 | 0.00 | 76 | 1009.3 |
| 20260506191607 | 61 | 188 | 2.6 | 9.6 | 0.00 | 0.00 | 0.00 | 76 | 1009.5 |
| 20260506191059 | 61 | 142 | 2.6 | 9.6 | 0.00 | 0.00 | 0.00 | 76 | 1009.4 |
| 20260506190558 | 61 | 213 | 2.6 | 9.6 | 0.00 | 0.00 | 0.00 | 76 | 1009.5 |
| 20260506190100 | 61 | 224 | 2.6 | 8.7 | 0.00 | 0.00 | 0.00 | 75 | 1009.5 |
| 20260506185557 | 61 | 0 | 1.7 | 8.7 | 0.00 | 0.00 | 0.00 | 76 | 1009.5 |
| 20260506185102 | 61 | 129 | 2.6 | 8.7 | 0.00 | 0.00 | 0.00 | 75 | 1009.2 |
| 20260506184609 | 62 | 136 | 2.6 | 12.2 | 0.00 | 0.00 | 0.00 | 75 | 1009.4 |
| 20260506184101 | 62 | 182 | 2.6 | 12.2 | 0.00 | 0.00 | 0.00 | 75 | 1009.5 |
| 20260506183600 | 62 | 107 | 3.5 | 11.3 | 0.00 | 0.00 | 0.00 | 74 | 1009.6 |
| 20260506183103 | 62 | 175 | 3.5 | 11.3 | 0.00 | 0.00 | 0.00 | 74 | 1009.6 |
| 20260506182601 | 62 | 200 | 3.5 | 12.2 | 0.00 | 0.00 | 0.00 | 74 | 1009.6 |
| 20260506182059 | 63 | 193 | 3.5 | 12.2 | 0.00 | 0.00 | 0.00 | 73 | 1009.7 |
| 20260506181601 | 63 | 135 | 1.7 | 10.4 | 0.00 | 0.00 | 0.00 | 73 | 1009.5 |
| 20260506181059 | 63 | 136 | 3.5 | 10.4 | 0.00 | 0.00 | 0.00 | 73 | 1009.7 |
| 20260506180557 | 63 | 151 | 1.7 | 10.4 | 0.00 | 0.00 | 0.00 | 73 | 1009.8 |
| 20260506175558 | 63 | 172 | 2.6 | 11.3 | 0.00 | 0.00 | 0.00 | 72 | 1010.0 |
| 20260506175057 | 64 | 180 | 3.5 | 11.3 | 0.00 | 0.00 | 0.00 | 71 | 1010.1 |
| 20260506174559 | 64 | 159 | 2.6 | 9.6 | 0.00 | 0.00 | 0.00 | 71 | 1010.1 |
| 20260506174059 | 65 | 229 | 3.5 | 15.6 | 0.00 | 0.00 | 0.00 | 71 | 1010.3 |
| 20260506173601 | 64 | 168 | 4.3 | 15.6 | 0.00 | 0.00 | 0.00 | 71 | 1010.4 |
| 20260506173109 | 65 | 182 | 4.3 | 14.8 | 0.00 | 0.00 | 0.00 | 70 | 1010.4 |
| 20260506172603 | 65 | 223 | 3.5 | 15.6 | 0.00 | 0.00 | 0.00 | 71 | 1010.4 |
| 20260506172058 | 65 | 217 | 4.3 | 15.6 | 0.00 | 0.00 | 0.00 | 70 | 1010.4 |
| 20260506171558 | 65 | 97 | 4.3 | 14.8 | 0.00 | 0.00 | 0.00 | 70 | 1010.2 |
| 20260506171105 | 65 | 144 | 3.5 | 13.0 | 0.00 | 0.00 | 0.00 | 70 | 1010.4 |
| 20260506170600 | 66 | 169 | 4.3 | 13.0 | 0.00 | 0.00 | 0.00 | 68 | 1010.3 |
| 20260506170115 | 67 | 194 | 1.7 | 15.6 | 0.00 | 0.00 | 0.00 | 70 | 1010.3 |
| 20260506165558 | 65 | 115 | 2.6 | 16.5 | 0.00 | 0.00 | 0.00 | 69 | 1010.6 |
| 20260506165058 | 66 | 276 | 3.5 | 16.5 | 0.00 | 0.00 | 0.00 | 69 | 1010.7 |
| 20260506164601 | 66 | 124 | 2.6 | 10.4 | 0.00 | 0.00 | 0.00 | 70 | 1010.5 |
| 20260506164057 | 66 | 211 | 1.7 | 10.4 | 0.00 | 0.00 | 0.00 | 69 | 1010.5 |
| 20260506163600 | 66 | 221 | 1.7 | 8.7 | 0.00 | 0.00 | 0.00 | 69 | 1010.6 |
| 20260506163112 | 66 | 206 | 1.7 | 11.3 | 0.00 | 0.00 | 0.00 | 70 | 1010.8 |
| 20260506162557 | 65 | 227 | 2.6 | 13.0 | 0.00 | 0.00 | 0.00 | 69 | 1010.6 |
| 20260506162100 | 65 | 167 | 4.3 | 13.0 | 0.00 | 0.00 | 0.00 | 69 | 1010.9 |
| 20260506161601 | 66 | 232 | 1.7 | 8.7 | 0.00 | 0.00 | 0.00 | 69 | 1011.1 |
| 20260506161100 | 66 | 155 | 1.7 | 14.8 | 0.00 | 0.00 | 0.00 | 69 | 1011.1 |
| 20260506160601 | 65 | 236 | 2.6 | 15.6 | 0.00 | 0.00 | 0.00 | 70 | 1011.1 |